sensor_id;sensor_type;location;lat;lon;timestamp;P1;durP1;ratioP1;P2;durP2;ratioP2
41141;SDS011;63666;52.284;20.890;2023-06-24T00:00:48;6.20;;;4.20;;
41141;SDS011;63666;52.284;20.890;2023-06-24T00:03:37;5.50;;;3.90;;
41141;SDS011;63666;52.284;20.890;2023-06-24T00:06:15;5.80;;;4.20;;
41141;SDS011;63666;52.284;20.890;2023-06-24T00:08:50;6.20;;;4.20;;
41141;SDS011;63666;52.284;20.890;2023-06-24T00:11:31;6.70;;;4.30;;
41141;SDS011;63666;52.284;20.890;2023-06-24T00:14:07;5.30;;;3.80;;
41141;SDS011;63666;52.284;20.890;2023-06-24T00:16:41;6.00;;;3.70;;
41141;SDS011;63666;52.284;20.890;2023-06-24T00:19:15;5.90;;;3.90;;
41141;SDS011;63666;52.284;20.890;2023-06-24T00:21:50;6.00;;;4.20;;
41141;SDS011;63666;52.284;20.890;2023-06-24T00:24:24;5.80;;;3.70;;
41141;SDS011;63666;52.284;20.890;2023-06-24T00:26:57;6.00;;;4.20;;
41141;SDS011;63666;52.284;20.890;2023-06-24T00:29:30;6.00;;;4.20;;
41141;SDS011;63666;52.284;20.890;2023-06-24T00:32:05;5.50;;;4.00;;
41141;SDS011;63666;52.284;20.890;2023-06-24T00:34:40;5.50;;;3.90;;
41141;SDS011;63666;52.284;20.890;2023-06-24T00:37:14;6.20;;;3.90;;
41141;SDS011;63666;52.284;20.890;2023-06-24T00:39:48;6.50;;;4.00;;
41141;SDS011;63666;52.284;20.890;2023-06-24T00:42:21;5.90;;;4.00;;
41141;SDS011;63666;52.284;20.890;2023-06-24T00:44:56;5.40;;;3.90;;
41141;SDS011;63666;52.284;20.890;2023-06-24T00:47:31;5.60;;;3.70;;
41141;SDS011;63666;52.284;20.890;2023-06-24T00:50:07;5.40;;;3.80;;
41141;SDS011;63666;52.284;20.890;2023-06-24T00:52:43;5.80;;;4.00;;
41141;SDS011;63666;52.284;20.890;2023-06-24T00:55:17;5.40;;;3.80;;
41141;SDS011;63666;52.284;20.890;2023-06-24T00:57:53;6.20;;;3.70;;
41141;SDS011;63666;52.284;20.890;2023-06-24T01:00:27;6.20;;;4.10;;
41141;SDS011;63666;52.284;20.890;2023-06-24T01:03:04;6.00;;;4.20;;
41141;SDS011;63666;52.284;20.890;2023-06-24T01:05:38;6.20;;;3.90;;
41141;SDS011;63666;52.284;20.890;2023-06-24T01:08:12;6.10;;;4.10;;
41141;SDS011;63666;52.284;20.890;2023-06-24T01:10:46;5.80;;;4.00;;
41141;SDS011;63666;52.284;20.890;2023-06-24T01:13:20;5.80;;;4.10;;
41141;SDS011;63666;52.284;20.890;2023-06-24T01:15:54;6.60;;;3.70;;
41141;SDS011;63666;52.284;20.890;2023-06-24T01:18:32;5.40;;;3.90;;
41141;SDS011;63666;52.284;20.890;2023-06-24T01:21:14;5.40;;;4.10;;
41141;SDS011;63666;52.284;20.890;2023-06-24T01:24:04;6.00;;;3.90;;
41141;SDS011;63666;52.284;20.890;2023-06-24T01:27:18;5.60;;;4.00;;
41141;SDS011;63666;52.284;20.890;2023-06-24T01:30:30;5.80;;;4.20;;
41141;SDS011;63666;52.284;20.890;2023-06-24T01:33:17;5.90;;;4.10;;
41141;SDS011;63666;52.284;20.890;2023-06-24T01:35:56;6.10;;;4.10;;
41141;SDS011;63666;52.284;20.890;2023-06-24T01:38:34;5.50;;;4.00;;
41141;SDS011;63666;52.284;20.890;2023-06-24T01:41:13;5.90;;;4.10;;
41141;SDS011;63666;52.284;20.890;2023-06-24T01:44:08;5.90;;;4.30;;
41141;SDS011;63666;52.284;20.890;2023-06-24T01:46:49;6.50;;;4.30;;
41141;SDS011;63666;52.284;20.890;2023-06-24T01:49:44;6.20;;;4.30;;
41141;SDS011;63666;52.284;20.890;2023-06-24T01:52:19;5.60;;;3.90;;
41141;SDS011;63666;52.284;20.890;2023-06-24T01:54:56;6.00;;;4.40;;
41141;SDS011;63666;52.284;20.890;2023-06-24T01:57:32;6.30;;;4.10;;
41141;SDS011;63666;52.284;20.890;2023-06-24T02:00:09;6.20;;;4.30;;
41141;SDS011;63666;52.284;20.890;2023-06-24T02:02:48;6.40;;;4.40;;
41141;SDS011;63666;52.284;20.890;2023-06-24T02:05:24;6.00;;;4.30;;
41141;SDS011;63666;52.284;20.890;2023-06-24T02:07:58;6.20;;;4.40;;
41141;SDS011;63666;52.284;20.890;2023-06-24T02:10:34;6.60;;;4.50;;
41141;SDS011;63666;52.284;20.890;2023-06-24T02:13:11;6.10;;;4.60;;
41141;SDS011;63666;52.284;20.890;2023-06-24T02:15:46;6.30;;;4.60;;
41141;SDS011;63666;52.284;20.890;2023-06-24T02:18:21;6.70;;;4.50;;
41141;SDS011;63666;52.284;20.890;2023-06-24T02:20:57;6.90;;;4.60;;
41141;SDS011;63666;52.284;20.890;2023-06-24T02:23:32;6.40;;;4.40;;
41141;SDS011;63666;52.284;20.890;2023-06-24T02:26:07;6.30;;;4.70;;
41141;SDS011;63666;52.284;20.890;2023-06-24T02:28:42;6.30;;;4.80;;
41141;SDS011;63666;52.284;20.890;2023-06-24T02:31:18;6.10;;;4.60;;
41141;SDS011;63666;52.284;20.890;2023-06-24T02:33:52;6.80;;;4.80;;
41141;SDS011;63666;52.284;20.890;2023-06-24T02:36:25;6.50;;;4.80;;
41141;SDS011;63666;52.284;20.890;2023-06-24T02:38:59;6.70;;;4.60;;
41141;SDS011;63666;52.284;20.890;2023-06-24T02:41:33;6.40;;;4.60;;
41141;SDS011;63666;52.284;20.890;2023-06-24T02:44:07;6.10;;;4.80;;
41141;SDS011;63666;52.284;20.890;2023-06-24T02:46:43;6.60;;;4.80;;
41141;SDS011;63666;52.284;20.890;2023-06-24T02:49:18;6.50;;;4.40;;
41141;SDS011;63666;52.284;20.890;2023-06-24T02:51:52;6.30;;;4.70;;
41141;SDS011;63666;52.284;20.890;2023-06-24T02:54:27;6.70;;;4.90;;
41141;SDS011;63666;52.284;20.890;2023-06-24T02:57:00;6.20;;;4.50;;
41141;SDS011;63666;52.284;20.890;2023-06-24T02:59:36;6.00;;;4.50;;
41141;SDS011;63666;52.284;20.890;2023-06-24T03:02:09;6.60;;;4.80;;
41141;SDS011;63666;52.284;20.890;2023-06-24T03:04:43;6.10;;;4.60;;
41141;SDS011;63666;52.284;20.890;2023-06-24T03:07:19;6.50;;;4.60;;
41141;SDS011;63666;52.284;20.890;2023-06-24T03:09:55;6.50;;;4.70;;
41141;SDS011;63666;52.284;20.890;2023-06-24T03:12:30;7.00;;;5.00;;
41141;SDS011;63666;52.284;20.890;2023-06-24T03:15:05;6.60;;;4.70;;
41141;SDS011;63666;52.284;20.890;2023-06-24T03:17:42;6.20;;;4.80;;
41141;SDS011;63666;52.284;20.890;2023-06-24T03:20:15;6.30;;;4.70;;
41141;SDS011;63666;52.284;20.890;2023-06-24T03:22:51;6.70;;;4.60;;
41141;SDS011;63666;52.284;20.890;2023-06-24T03:25:30;6.50;;;4.70;;
41141;SDS011;63666;52.284;20.890;2023-06-24T03:28:07;6.30;;;4.70;;
41141;SDS011;63666;52.284;20.890;2023-06-24T03:30:46;6.40;;;4.60;;
41141;SDS011;63666;52.284;20.890;2023-06-24T03:33:22;6.20;;;4.70;;
41141;SDS011;63666;52.284;20.890;2023-06-24T03:36:02;6.40;;;5.00;;
41141;SDS011;63666;52.284;20.890;2023-06-24T03:38:40;6.60;;;4.60;;
41141;SDS011;63666;52.284;20.890;2023-06-24T03:41:16;6.60;;;4.80;;
41141;SDS011;63666;52.284;20.890;2023-06-24T03:43:52;6.40;;;4.50;;
41141;SDS011;63666;52.284;20.890;2023-06-24T03:46:29;6.00;;;4.50;;
41141;SDS011;63666;52.284;20.890;2023-06-24T03:49:07;6.40;;;4.80;;
41141;SDS011;63666;52.284;20.890;2023-06-24T03:51:45;6.50;;;4.60;;
41141;SDS011;63666;52.284;20.890;2023-06-24T03:54:23;6.90;;;4.60;;
41141;SDS011;63666;52.284;20.890;2023-06-24T03:56:59;6.70;;;4.90;;
41141;SDS011;63666;52.284;20.890;2023-06-24T03:59:33;6.40;;;4.70;;
41141;SDS011;63666;52.284;20.890;2023-06-24T04:02:08;6.40;;;5.00;;
41141;SDS011;63666;52.284;20.890;2023-06-24T04:04:41;6.80;;;4.90;;
41141;SDS011;63666;52.284;20.890;2023-06-24T04:07:23;7.00;;;5.20;;
41141;SDS011;63666;52.284;20.890;2023-06-24T04:09:59;7.30;;;5.10;;
41141;SDS011;63666;52.284;20.890;2023-06-24T04:12:33;6.10;;;4.70;;
41141;SDS011;63666;52.284;20.890;2023-06-24T04:15:30;7.10;;;5.10;;
41141;SDS011;63666;52.284;20.890;2023-06-24T04:18:04;7.30;;;4.90;;
41141;SDS011;63666;52.284;20.890;2023-06-24T04:20:39;6.80;;;5.00;;
41141;SDS011;63666;52.284;20.890;2023-06-24T04:23:12;6.00;;;4.80;;
41141;SDS011;63666;52.284;20.890;2023-06-24T04:25:48;7.40;;;5.30;;
41141;SDS011;63666;52.284;20.890;2023-06-24T04:28:21;6.60;;;5.20;;
41141;SDS011;63666;52.284;20.890;2023-06-24T04:30:55;6.50;;;4.90;;
41141;SDS011;63666;52.284;20.890;2023-06-24T04:33:29;6.70;;;4.80;;
41141;SDS011;63666;52.284;20.890;2023-06-24T04:36:03;6.10;;;4.70;;
41141;SDS011;63666;52.284;20.890;2023-06-24T04:38:37;6.40;;;4.60;;
41141;SDS011;63666;52.284;20.890;2023-06-24T04:41:12;7.10;;;4.70;;
41141;SDS011;63666;52.284;20.890;2023-06-24T04:43:45;6.50;;;4.80;;
41141;SDS011;63666;52.284;20.890;2023-06-24T04:46:19;6.60;;;4.80;;
41141;SDS011;63666;52.284;20.890;2023-06-24T04:48:52;6.40;;;4.80;;
41141;SDS011;63666;52.284;20.890;2023-06-24T04:51:25;6.20;;;4.80;;
41141;SDS011;63666;52.284;20.890;2023-06-24T04:53:59;6.50;;;4.90;;
41141;SDS011;63666;52.284;20.890;2023-06-24T04:56:33;6.60;;;4.80;;
41141;SDS011;63666;52.284;20.890;2023-06-24T04:59:06;6.60;;;4.80;;
41141;SDS011;63666;52.284;20.890;2023-06-24T05:01:39;5.70;;;4.20;;
41141;SDS011;63666;52.284;20.890;2023-06-24T05:04:13;6.90;;;4.80;;
41141;SDS011;63666;52.284;20.890;2023-06-24T05:06:49;6.30;;;4.50;;
41141;SDS011;63666;52.284;20.890;2023-06-24T05:09:23;5.90;;;4.50;;
41141;SDS011;63666;52.284;20.890;2023-06-24T05:11:59;6.60;;;4.70;;
41141;SDS011;63666;52.284;20.890;2023-06-24T05:14:33;6.00;;;4.40;;
41141;SDS011;63666;52.284;20.890;2023-06-24T05:17:08;6.50;;;4.70;;
41141;SDS011;63666;52.284;20.890;2023-06-24T05:19:43;6.50;;;4.50;;
41141;SDS011;63666;52.284;20.890;2023-06-24T05:22:17;7.40;;;4.40;;
41141;SDS011;63666;52.284;20.890;2023-06-24T05:24:54;6.30;;;4.40;;
41141;SDS011;63666;52.284;20.890;2023-06-24T05:27:27;7.00;;;4.80;;
41141;SDS011;63666;52.284;20.890;2023-06-24T05:30:00;7.20;;;4.70;;
41141;SDS011;63666;52.284;20.890;2023-06-24T05:32:33;6.90;;;4.60;;
41141;SDS011;63666;52.284;20.890;2023-06-24T05:35:08;6.60;;;4.30;;
41141;SDS011;63666;52.284;20.890;2023-06-24T05:37:42;6.90;;;4.60;;
41141;SDS011;63666;52.284;20.890;2023-06-24T05:40:15;6.70;;;4.80;;
41141;SDS011;63666;52.284;20.890;2023-06-24T05:42:49;6.70;;;4.30;;
41141;SDS011;63666;52.284;20.890;2023-06-24T05:45:23;6.50;;;4.30;;
41141;SDS011;63666;52.284;20.890;2023-06-24T05:47:56;6.30;;;4.30;;
41141;SDS011;63666;52.284;20.890;2023-06-24T05:50:31;6.20;;;4.20;;
41141;SDS011;63666;52.284;20.890;2023-06-24T05:53:05;6.10;;;4.20;;
41141;SDS011;63666;52.284;20.890;2023-06-24T05:55:38;6.30;;;4.00;;
41141;SDS011;63666;52.284;20.890;2023-06-24T05:58:11;6.70;;;4.10;;
41141;SDS011;63666;52.284;20.890;2023-06-24T06:00:46;6.10;;;4.20;;
41141;SDS011;63666;52.284;20.890;2023-06-24T06:03:20;6.30;;;4.40;;
41141;SDS011;63666;52.284;20.890;2023-06-24T06:05:56;6.10;;;4.30;;
41141;SDS011;63666;52.284;20.890;2023-06-24T06:08:32;6.10;;;4.20;;
41141;SDS011;63666;52.284;20.890;2023-06-24T06:11:05;5.80;;;4.50;;
41141;SDS011;63666;52.284;20.890;2023-06-24T06:13:39;6.60;;;4.50;;
41141;SDS011;63666;52.284;20.890;2023-06-24T06:16:13;5.70;;;4.00;;
41141;SDS011;63666;52.284;20.890;2023-06-24T06:18:48;6.00;;;4.20;;
41141;SDS011;63666;52.284;20.890;2023-06-24T06:21:24;6.40;;;4.30;;
41141;SDS011;63666;52.284;20.890;2023-06-24T06:23:57;5.70;;;4.30;;
41141;SDS011;63666;52.284;20.890;2023-06-24T06:26:30;5.90;;;4.30;;
41141;SDS011;63666;52.284;20.890;2023-06-24T06:29:05;6.30;;;4.30;;
41141;SDS011;63666;52.284;20.890;2023-06-24T06:31:41;5.80;;;4.40;;
41141;SDS011;63666;52.284;20.890;2023-06-24T06:34:16;6.10;;;3.90;;
41141;SDS011;63666;52.284;20.890;2023-06-24T06:36:51;5.90;;;4.20;;
41141;SDS011;63666;52.284;20.890;2023-06-24T06:39:27;6.50;;;4.40;;
41141;SDS011;63666;52.284;20.890;2023-06-24T06:42:00;5.80;;;4.60;;
41141;SDS011;63666;52.284;20.890;2023-06-24T06:44:33;5.60;;;4.20;;
41141;SDS011;63666;52.284;20.890;2023-06-24T06:47:12;6.10;;;4.30;;
41141;SDS011;63666;52.284;20.890;2023-06-24T06:49:46;7.10;;;4.40;;
41141;SDS011;63666;52.284;20.890;2023-06-24T06:52:19;6.20;;;4.60;;
41141;SDS011;63666;52.284;20.890;2023-06-24T06:54:54;5.80;;;4.50;;
41141;SDS011;63666;52.284;20.890;2023-06-24T06:57:31;6.20;;;4.40;;
41141;SDS011;63666;52.284;20.890;2023-06-24T07:00:06;5.90;;;4.40;;
41141;SDS011;63666;52.284;20.890;2023-06-24T07:02:40;6.20;;;4.50;;
41141;SDS011;63666;52.284;20.890;2023-06-24T07:05:14;6.20;;;4.60;;
41141;SDS011;63666;52.284;20.890;2023-06-24T07:07:51;6.20;;;4.30;;
41141;SDS011;63666;52.284;20.890;2023-06-24T07:10:25;5.70;;;4.30;;
41141;SDS011;63666;52.284;20.890;2023-06-24T07:12:58;6.20;;;4.30;;
41141;SDS011;63666;52.284;20.890;2023-06-24T07:15:31;6.80;;;4.50;;
41141;SDS011;63666;52.284;20.890;2023-06-24T07:18:06;5.60;;;4.30;;
41141;SDS011;63666;52.284;20.890;2023-06-24T07:20:41;6.10;;;4.40;;
41141;SDS011;63666;52.284;20.890;2023-06-24T07:23:17;6.00;;;4.60;;
41141;SDS011;63666;52.284;20.890;2023-06-24T07:25:50;5.70;;;4.30;;
41141;SDS011;63666;52.284;20.890;2023-06-24T07:28:24;6.10;;;4.50;;
41141;SDS011;63666;52.284;20.890;2023-06-24T07:30:58;5.90;;;4.40;;
41141;SDS011;63666;52.284;20.890;2023-06-24T07:33:32;6.10;;;4.40;;
41141;SDS011;63666;52.284;20.890;2023-06-24T07:36:06;6.00;;;4.30;;
41141;SDS011;63666;52.284;20.890;2023-06-24T07:38:41;6.00;;;4.20;;
41141;SDS011;63666;52.284;20.890;2023-06-24T07:41:17;5.80;;;4.40;;
41141;SDS011;63666;52.284;20.890;2023-06-24T07:43:52;6.30;;;4.40;;
41141;SDS011;63666;52.284;20.890;2023-06-24T07:46:26;6.80;;;4.00;;
41141;SDS011;63666;52.284;20.890;2023-06-24T07:49:00;6.00;;;4.20;;
41141;SDS011;63666;52.284;20.890;2023-06-24T07:51:38;5.90;;;4.30;;
41141;SDS011;63666;52.284;20.890;2023-06-24T07:54:11;6.10;;;4.10;;
41141;SDS011;63666;52.284;20.890;2023-06-24T07:56:45;5.60;;;4.20;;
41141;SDS011;63666;52.284;20.890;2023-06-24T07:59:19;5.50;;;4.00;;
41141;SDS011;63666;52.284;20.890;2023-06-24T08:01:55;5.70;;;4.20;;
41141;SDS011;63666;52.284;20.890;2023-06-24T08:04:29;7.00;;;4.00;;
41141;SDS011;63666;52.284;20.890;2023-06-24T08:07:04;5.40;;;4.10;;
41141;SDS011;63666;52.284;20.890;2023-06-24T08:09:38;5.90;;;4.00;;
41141;SDS011;63666;52.284;20.890;2023-06-24T08:12:12;5.50;;;4.00;;
41141;SDS011;63666;52.284;20.890;2023-06-24T08:14:48;6.20;;;4.10;;
41141;SDS011;63666;52.284;20.890;2023-06-24T08:17:21;6.20;;;3.80;;
41141;SDS011;63666;52.284;20.890;2023-06-24T08:19:55;6.40;;;4.10;;
41141;SDS011;63666;52.284;20.890;2023-06-24T08:22:28;5.70;;;4.10;;
41141;SDS011;63666;52.284;20.890;2023-06-24T08:25:03;6.30;;;4.00;;
41141;SDS011;63666;52.284;20.890;2023-06-24T08:27:38;6.00;;;3.80;;
41141;SDS011;63666;52.284;20.890;2023-06-24T08:30:14;5.40;;;3.80;;
41141;SDS011;63666;52.284;20.890;2023-06-24T08:32:49;6.40;;;3.70;;
41141;SDS011;63666;52.284;20.890;2023-06-24T08:35:26;5.50;;;3.40;;
41141;SDS011;63666;52.284;20.890;2023-06-24T08:38:03;5.90;;;3.60;;
41141;SDS011;63666;52.284;20.890;2023-06-24T08:40:37;5.20;;;3.70;;
41141;SDS011;63666;52.284;20.890;2023-06-24T08:43:11;6.10;;;3.60;;
41141;SDS011;63666;52.284;20.890;2023-06-24T08:45:46;5.10;;;3.50;;
41141;SDS011;63666;52.284;20.890;2023-06-24T08:48:21;6.00;;;3.70;;
41141;SDS011;63666;52.284;20.890;2023-06-24T08:50:57;5.30;;;3.90;;
41141;SDS011;63666;52.284;20.890;2023-06-24T08:53:33;5.60;;;3.90;;
41141;SDS011;63666;52.284;20.890;2023-06-24T08:56:07;5.00;;;3.50;;
41141;SDS011;63666;52.284;20.890;2023-06-24T08:58:41;5.40;;;3.90;;
41141;SDS011;63666;52.284;20.890;2023-06-24T09:01:15;5.70;;;4.00;;
41141;SDS011;63666;52.284;20.890;2023-06-24T09:03:53;5.10;;;3.60;;
41141;SDS011;63666;52.284;20.890;2023-06-24T09:06:27;5.70;;;3.60;;
41141;SDS011;63666;52.284;20.890;2023-06-24T09:09:00;5.50;;;4.10;;
41141;SDS011;63666;52.284;20.890;2023-06-24T09:11:34;6.30;;;4.10;;
41141;SDS011;63666;52.284;20.890;2023-06-24T09:14:07;5.70;;;4.10;;
41141;SDS011;63666;52.284;20.890;2023-06-24T09:16:55;6.00;;;4.00;;
41141;SDS011;63666;52.284;20.890;2023-06-24T09:19:31;5.70;;;4.00;;
41141;SDS011;63666;52.284;20.890;2023-06-24T09:22:09;5.50;;;4.00;;
41141;SDS011;63666;52.284;20.890;2023-06-24T09:24:49;5.20;;;3.90;;
41141;SDS011;63666;52.284;20.890;2023-06-24T09:27:22;6.10;;;4.00;;
41141;SDS011;63666;52.284;20.890;2023-06-24T09:29:56;6.20;;;4.10;;
41141;SDS011;63666;52.284;20.890;2023-06-24T09:32:32;5.10;;;3.70;;
41141;SDS011;63666;52.284;20.890;2023-06-24T09:35:07;6.70;;;4.30;;
41141;SDS011;63666;52.284;20.890;2023-06-24T09:37:43;6.70;;;3.90;;
41141;SDS011;63666;52.284;20.890;2023-06-24T09:40:27;8.70;;;4.70;;
41141;SDS011;63666;52.284;20.890;2023-06-24T09:43:00;6.90;;;4.60;;
41141;SDS011;63666;52.284;20.890;2023-06-24T09:45:34;6.70;;;4.10;;
41141;SDS011;63666;52.284;20.890;2023-06-24T09:48:08;6.00;;;4.20;;
41141;SDS011;63666;52.284;20.890;2023-06-24T09:50:41;6.90;;;4.10;;
41141;SDS011;63666;52.284;20.890;2023-06-24T09:53:15;6.50;;;4.40;;
41141;SDS011;63666;52.284;20.890;2023-06-24T09:55:50;6.20;;;4.30;;
41141;SDS011;63666;52.284;20.890;2023-06-24T09:58:24;6.10;;;4.30;;
41141;SDS011;63666;52.284;20.890;2023-06-24T10:00:59;6.00;;;4.20;;
41141;SDS011;63666;52.284;20.890;2023-06-24T10:03:36;5.50;;;4.10;;
41141;SDS011;63666;52.284;20.890;2023-06-24T10:06:11;6.10;;;4.20;;
41141;SDS011;63666;52.284;20.890;2023-06-24T10:08:44;6.50;;;4.20;;
41141;SDS011;63666;52.284;20.890;2023-06-24T10:11:20;6.20;;;4.00;;
41141;SDS011;63666;52.284;20.890;2023-06-24T10:13:54;7.10;;;4.30;;
41141;SDS011;63666;52.284;20.890;2023-06-24T10:16:28;6.10;;;4.10;;
41141;SDS011;63666;52.284;20.890;2023-06-24T10:19:03;5.70;;;3.90;;
41141;SDS011;63666;52.284;20.890;2023-06-24T10:21:55;5.40;;;4.00;;
41141;SDS011;63666;52.284;20.890;2023-06-24T10:24:34;6.30;;;4.10;;
41141;SDS011;63666;52.284;20.890;2023-06-24T10:27:15;5.70;;;3.90;;
41141;SDS011;63666;52.284;20.890;2023-06-24T10:30:04;6.40;;;4.10;;
41141;SDS011;63666;52.284;20.890;2023-06-24T10:32:44;5.70;;;4.50;;
41141;SDS011;63666;52.284;20.890;2023-06-24T10:35:26;5.90;;;4.20;;
41141;SDS011;63666;52.284;20.890;2023-06-24T10:38:02;6.00;;;4.30;;
41141;SDS011;63666;52.284;20.890;2023-06-24T10:40:39;6.00;;;4.10;;
41141;SDS011;63666;52.284;20.890;2023-06-24T10:43:32;6.50;;;4.00;;
41141;SDS011;63666;52.284;20.890;2023-06-24T10:46:16;6.30;;;4.20;;
41141;SDS011;63666;52.284;20.890;2023-06-24T10:48:50;6.20;;;3.80;;
41141;SDS011;63666;52.284;20.890;2023-06-24T10:51:24;6.40;;;4.10;;
41141;SDS011;63666;52.284;20.890;2023-06-24T10:53:58;5.60;;;4.00;;
41141;SDS011;63666;52.284;20.890;2023-06-24T10:56:33;6.30;;;4.00;;
41141;SDS011;63666;52.284;20.890;2023-06-24T10:59:09;6.40;;;4.50;;
41141;SDS011;63666;52.284;20.890;2023-06-24T11:01:54;5.70;;;4.30;;
41141;SDS011;63666;52.284;20.890;2023-06-24T11:04:27;6.40;;;4.50;;
41141;SDS011;63666;52.284;20.890;2023-06-24T11:07:03;5.90;;;4.30;;
41141;SDS011;63666;52.284;20.890;2023-06-24T11:09:37;6.70;;;4.00;;
41141;SDS011;63666;52.284;20.890;2023-06-24T11:12:12;6.00;;;4.20;;
41141;SDS011;63666;52.284;20.890;2023-06-24T11:14:45;6.00;;;4.20;;
41141;SDS011;63666;52.284;20.890;2023-06-24T11:17:22;5.60;;;4.10;;
41141;SDS011;63666;52.284;20.890;2023-06-24T11:19:57;6.00;;;4.30;;
41141;SDS011;63666;52.284;20.890;2023-06-24T11:22:32;6.20;;;4.20;;
41141;SDS011;63666;52.284;20.890;2023-06-24T11:25:17;5.70;;;4.20;;
41141;SDS011;63666;52.284;20.890;2023-06-24T11:27:55;18.90;;;6.40;;
41141;SDS011;63666;52.284;20.890;2023-06-24T11:30:38;8.40;;;4.50;;
41141;SDS011;63666;52.284;20.890;2023-06-24T11:33:27;6.20;;;4.30;;
41141;SDS011;63666;52.284;20.890;2023-06-24T11:36:10;6.30;;;4.40;;
41141;SDS011;63666;52.284;20.890;2023-06-24T11:38:45;6.30;;;4.40;;
41141;SDS011;63666;52.284;20.890;2023-06-24T11:41:25;6.60;;;4.40;;
41141;SDS011;63666;52.284;20.890;2023-06-24T11:43:59;6.80;;;4.50;;
41141;SDS011;63666;52.284;20.890;2023-06-24T11:46:35;6.30;;;4.30;;
41141;SDS011;63666;52.284;20.890;2023-06-24T11:49:11;7.30;;;4.50;;
41141;SDS011;63666;52.284;20.890;2023-06-24T11:51:49;6.60;;;4.30;;
41141;SDS011;63666;52.284;20.890;2023-06-24T11:54:23;5.90;;;3.90;;
41141;SDS011;63666;52.284;20.890;2023-06-24T11:56:56;7.80;;;4.30;;
41141;SDS011;63666;52.284;20.890;2023-06-24T11:59:30;6.30;;;4.30;;
41141;SDS011;63666;52.284;20.890;2023-06-24T12:02:16;6.10;;;4.30;;
41141;SDS011;63666;52.284;20.890;2023-06-24T12:04:54;6.20;;;4.10;;
41141;SDS011;63666;52.284;20.890;2023-06-24T12:07:28;6.90;;;4.30;;
41141;SDS011;63666;52.284;20.890;2023-06-24T12:10:05;5.80;;;4.20;;
41141;SDS011;63666;52.284;20.890;2023-06-24T12:15:17;5.80;;;4.00;;
41141;SDS011;63666;52.284;20.890;2023-06-24T12:17:53;5.90;;;4.00;;
41141;SDS011;63666;52.284;20.890;2023-06-24T12:20:28;5.80;;;4.00;;
41141;SDS011;63666;52.284;20.890;2023-06-24T12:23:11;6.40;;;4.30;;
41141;SDS011;63666;52.284;20.890;2023-06-24T12:25:48;6.40;;;4.00;;
41141;SDS011;63666;52.284;20.890;2023-06-24T12:28:22;6.60;;;4.40;;
41141;SDS011;63666;52.284;20.890;2023-06-24T12:30:57;5.80;;;4.30;;
41141;SDS011;63666;52.284;20.890;2023-06-24T12:33:31;6.60;;;4.20;;
41141;SDS011;63666;52.284;20.890;2023-06-24T12:36:14;6.10;;;4.30;;
41141;SDS011;63666;52.284;20.890;2023-06-24T12:38:51;6.70;;;4.40;;
41141;SDS011;63666;52.284;20.890;2023-06-24T12:41:24;6.30;;;4.40;;
41141;SDS011;63666;52.284;20.890;2023-06-24T12:43:58;5.40;;;4.20;;
41141;SDS011;63666;52.284;20.890;2023-06-24T12:46:31;5.40;;;4.10;;
41141;SDS011;63666;52.284;20.890;2023-06-24T12:49:06;6.00;;;4.60;;
41141;SDS011;63666;52.284;20.890;2023-06-24T12:51:39;6.80;;;4.10;;
41141;SDS011;63666;52.284;20.890;2023-06-24T12:54:13;6.00;;;4.30;;
41141;SDS011;63666;52.284;20.890;2023-06-24T12:56:48;5.60;;;4.00;;
41141;SDS011;63666;52.284;20.890;2023-06-24T12:59:35;7.10;;;4.10;;
41141;SDS011;63666;52.284;20.890;2023-06-24T13:02:08;6.50;;;4.00;;
41141;SDS011;63666;52.284;20.890;2023-06-24T13:04:43;6.70;;;4.40;;
41141;SDS011;63666;52.284;20.890;2023-06-24T13:07:19;7.00;;;4.60;;
41141;SDS011;63666;52.284;20.890;2023-06-24T13:09:54;6.20;;;4.30;;
41141;SDS011;63666;52.284;20.890;2023-06-24T13:12:27;6.40;;;4.40;;
41141;SDS011;63666;52.284;20.890;2023-06-24T13:15:00;6.20;;;4.20;;
41141;SDS011;63666;52.284;20.890;2023-06-24T13:17:35;5.90;;;4.00;;
41141;SDS011;63666;52.284;20.890;2023-06-24T13:20:10;5.70;;;3.80;;
41141;SDS011;63666;52.284;20.890;2023-06-24T13:22:44;6.30;;;3.80;;
41141;SDS011;63666;52.284;20.890;2023-06-24T13:25:18;5.20;;;3.60;;
41141;SDS011;63666;52.284;20.890;2023-06-24T13:27:55;5.60;;;3.50;;
41141;SDS011;63666;52.284;20.890;2023-06-24T13:30:29;6.10;;;3.40;;
41141;SDS011;63666;52.284;20.890;2023-06-24T13:33:02;5.00;;;3.40;;
41141;SDS011;63666;52.284;20.890;2023-06-24T13:35:35;5.10;;;3.10;;
41141;SDS011;63666;52.284;20.890;2023-06-24T13:38:09;5.60;;;3.20;;
41141;SDS011;63666;52.284;20.890;2023-06-24T13:40:45;4.50;;;3.20;;
41141;SDS011;63666;52.284;20.890;2023-06-24T13:43:19;5.50;;;3.60;;
41141;SDS011;63666;52.284;20.890;2023-06-24T13:45:54;6.00;;;3.60;;
41141;SDS011;63666;52.284;20.890;2023-06-24T13:48:27;5.30;;;3.20;;
41141;SDS011;63666;52.284;20.890;2023-06-24T13:51:01;5.40;;;3.60;;
41141;SDS011;63666;52.284;20.890;2023-06-24T13:53:35;5.40;;;3.50;;
41141;SDS011;63666;52.284;20.890;2023-06-24T13:56:11;5.60;;;3.40;;
41141;SDS011;63666;52.284;20.890;2023-06-24T13:58:45;5.90;;;3.60;;
41141;SDS011;63666;52.284;20.890;2023-06-24T14:01:20;5.50;;;3.90;;
41141;SDS011;63666;52.284;20.890;2023-06-24T14:03:56;6.90;;;4.20;;
41141;SDS011;63666;52.284;20.890;2023-06-24T14:06:29;6.30;;;4.20;;
41141;SDS011;63666;52.284;20.890;2023-06-24T14:09:03;6.20;;;4.40;;
41141;SDS011;63666;52.284;20.890;2023-06-24T14:11:36;6.80;;;4.20;;
41141;SDS011;63666;52.284;20.890;2023-06-24T14:14:10;7.80;;;4.50;;
41141;SDS011;63666;52.284;20.890;2023-06-24T14:16:44;6.80;;;4.60;;
41141;SDS011;63666;52.284;20.890;2023-06-24T14:19:18;8.40;;;5.20;;
41141;SDS011;63666;52.284;20.890;2023-06-24T14:21:53;10.30;;;5.60;;
41141;SDS011;63666;52.284;20.890;2023-06-24T14:24:28;7.90;;;5.20;;
41141;SDS011;63666;52.284;20.890;2023-06-24T14:27:01;9.70;;;6.40;;
41141;SDS011;63666;52.284;20.890;2023-06-24T14:29:36;10.40;;;7.00;;
41141;SDS011;63666;52.284;20.890;2023-06-24T14:32:10;7.70;;;5.40;;
41141;SDS011;63666;52.284;20.890;2023-06-24T14:34:43;8.20;;;5.70;;
41141;SDS011;63666;52.284;20.890;2023-06-24T14:37:19;7.90;;;5.60;;
41141;SDS011;63666;52.284;20.890;2023-06-24T14:39:56;8.20;;;5.40;;
41141;SDS011;63666;52.284;20.890;2023-06-24T14:42:29;7.10;;;5.00;;
41141;SDS011;63666;52.284;20.890;2023-06-24T14:45:06;6.90;;;4.60;;
41141;SDS011;63666;52.284;20.890;2023-06-24T14:47:40;6.30;;;4.20;;
41141;SDS011;63666;52.284;20.890;2023-06-24T14:50:15;8.10;;;4.50;;
41141;SDS011;63666;52.284;20.890;2023-06-24T14:52:49;6.80;;;4.40;;
41141;SDS011;63666;52.284;20.890;2023-06-24T14:55:25;6.50;;;4.40;;
41141;SDS011;63666;52.284;20.890;2023-06-24T14:57:59;6.30;;;4.50;;
41141;SDS011;63666;52.284;20.890;2023-06-24T15:00:33;7.00;;;4.70;;
41141;SDS011;63666;52.284;20.890;2023-06-24T15:03:06;6.20;;;4.30;;
41141;SDS011;63666;52.284;20.890;2023-06-24T15:05:40;6.10;;;4.50;;
41141;SDS011;63666;52.284;20.890;2023-06-24T15:08:15;5.80;;;4.50;;
41141;SDS011;63666;52.284;20.890;2023-06-24T15:10:51;6.70;;;4.40;;
41141;SDS011;63666;52.284;20.890;2023-06-24T15:13:26;6.50;;;4.30;;
41141;SDS011;63666;52.284;20.890;2023-06-24T15:16:03;7.00;;;4.70;;
41141;SDS011;63666;52.284;20.890;2023-06-24T15:18:47;6.90;;;4.50;;
41141;SDS011;63666;52.284;20.890;2023-06-24T15:21:23;7.50;;;5.00;;
41141;SDS011;63666;52.284;20.890;2023-06-24T15:24:07;8.70;;;5.70;;
41141;SDS011;63666;52.284;20.890;2023-06-24T15:26:40;7.20;;;4.80;;